Time;durP1;ratioP1;P1;durP2;ratioP2;P2;SDS_P1;SDS_P2;PMS_P1;PMS_P2;Temp;Humidity;BMP_temperature;BMP_pressure;BME280_temperature;BME280_humidity;BME280_pressure;Samples;Min_cycle;Max_cycle;Signal;HPM_P1;HPM_P2
2020/12/29 00:00:14;;;;;;;12.70;6.92;;;;;;;7.12;74.33;97814.04;1761697;80;27580;-74
2020/12/29 00:02:40;;;;;;;12.20;7.17;;;;;;;7.12;74.51;97811.92;1760037;80;25299;-73
2020/12/29 00:05:06;;;;;;;12.23;7.17;;;;;;;7.14;74.60;97814.65;1759238;80;28513;-73
2020/12/29 00:07:32;;;;;;;13.18;7.25;;;;;;;7.14;74.62;97808.59;1758607;80;21005;-73
2020/12/29 00:09:58;;;;;;;13.13;7.20;;;;;;;7.16;74.67;97814.46;1757607;80;21436;-73
2020/12/29 00:12:23;;;;;;;11.45;7.05;;;;;;;7.18;74.76;97813.27;1763549;80;27052;-72
2020/12/29 00:14:49;;;;;;;12.45;7.12;;;;;;;7.23;74.67;97815.84;1760934;80;25354;-72
2020/12/29 00:17:15;;;;;;;12.07;7.00;;;;;;;7.24;74.88;97806.94;1764320;80;28429;-73
2020/12/29 00:19:40;;;;;;;13.08;7.30;;;;;;;7.33;74.70;97811.86;1758365;80;26708;-74
2020/12/29 00:22:06;;;;;;;12.10;7.40;;;;;;;7.34;74.66;97810.03;1760501;80;21818;-72
2020/12/29 00:24:32;;;;;;;13.80;7.97;;;;;;;7.44;74.54;97801.32;1766784;80;21277;-74
2020/12/29 00:26:58;;;;;;;11.48;7.03;;;;;;;7.51;74.38;97800.83;1759341;80;25336;-72
2020/12/29 00:29:24;;;;;;;13.13;7.70;;;;;;;7.48;74.28;97795.97;1759274;80;28367;-73
2020/12/29 00:31:50;;;;;;;13.05;7.65;;;;;;;7.47;74.33;97795.68;1759957;80;21137;-73
2020/12/29 00:34:16;;;;;;;13.70;7.20;;;;;;;7.47;74.42;97787.80;1756327;80;21262;-72
2020/12/29 00:36:41;;;;;;;12.50;7.53;;;;;;;7.44;74.51;97784.25;1764636;80;27091;-72
2020/12/29 00:39:07;;;;;;;12.50;7.50;;;;;;;7.45;74.54;97776.66;1761863;80;25758;-73
2020/12/29 00:41:33;;;;;;;11.40;7.12;;;;;;;7.45;74.54;97769.30;1758082;80;29005;-72
2020/12/29 00:43:58;;;;;;;12.05;7.33;;;;;;;7.46;74.48;97769.10;1759291;80;27275;-73
2020/12/29 00:46:24;;;;;;;13.30;7.72;;;;;;;7.48;74.48;97767.08;1754011;80;21843;-72
2020/12/29 00:48:50;;;;;;;14.28;7.35;;;;;;;7.43;74.65;97774.74;1756729;80;27147;-73
2020/12/29 00:51:18;;;;;;;13.35;7.75;;;;;;;7.43;74.79;97767.37;1766869;80;21193;-70
2020/12/29 00:53:44;;;;;;;12.93;7.15;;;;;;;7.46;74.70;97755.17;1767672;80;21187;-73
2020/12/29 00:56:10;;;;;;;13.53;7.83;;;;;;;7.43;74.76;97751.11;1749887;80;26811;-72
2020/12/29 00:58:36;;;;;;;15.35;7.60;;;;;;;7.37;74.94;97746.64;1746815;80;21489;-70
2020/12/29 01:01:06;;;;;;;12.98;7.80;;;;;;;7.30;75.20;97741.85;1744507;80;21198;-71
2020/12/29 01:03:32;;;;;;;11.65;7.03;;;;;;;7.31;75.21;97737.72;1744853;80;21189;-71
2020/12/29 01:05:58;;;;;;;13.70;8.13;;;;;;;7.26;75.38;97723.58;1745719;80;28553;-73
2020/12/29 01:08:23;;;;;;;12.18;7.60;;;;;;;7.30;75.32;97711.66;1744760;80;26807;-73
2020/12/29 01:10:51;;;;;;;13.20;7.72;;;;;;;7.35;75.15;97713.22;1742469;80;21309;-70
2020/12/29 01:13:17;;;;;;;14.35;7.47;;;;;;;7.29;75.28;97707.44;1743331;80;21630;-70
2020/12/29 01:15:43;;;;;;;14.47;6.97;;;;;;;7.26;75.36;97707.83;1744009;80;25342;-70
2020/12/29 01:18:09;;;;;;;13.32;7.20;;;;;;;7.23;75.50;97698.52;1746404;80;28428;-72
2020/12/29 01:20:34;;;;;;;14.63;7.78;;;;;;;7.25;75.42;97693.07;1746541;80;26763;-72
2020/12/29 01:23:00;;;;;;;10.80;7.20;;;;;;;7.19;75.50;97692.85;1743793;80;21433;-71
2020/12/29 01:25:26;;;;;;;11.00;7.20;;;;;;;7.23;75.52;97693.78;1744375;80;26938;-72
2020/12/29 01:27:51;;;;;;;10.50;7.03;;;;;;;7.19;75.46;97690.71;1746888;80;26115;-73
2020/12/29 01:30:17;;;;;;;14.15;7.08;;;;;;;7.16;75.57;97686.69;1749141;80;25830;-71
2020/12/29 01:32:46;;;;;;;13.58;7.28;;;;;;;7.13;75.75;97678.37;1742110;80;20954;-72
2020/12/29 01:35:12;;;;;;;12.35;6.95;;;;;;;7.13;75.77;97680.52;1743776;80;21202;-72
2020/12/29 01:37:43;;;;;;;16.87;8.18;;;;;;;7.18;75.68;97684.66;1750250;80;27031;-72
2020/12/29 01:40:10;;;;;;;11.18;6.90;;;;;;;7.13;75.80;97694.95;1748476;80;21199;-72
2020/12/29 01:42:36;;;;;;;12.68;7.20;;;;;;;7.16;75.86;97693.25;1742825;80;21259;-72
2020/12/29 01:45:11;;;;;;;13.18;7.60;;;;;;;7.27;75.55;97685.80;1747480;80;21543;-72
2020/12/29 01:47:38;;;;;;;12.88;7.30;;;;;;;7.15;75.81;97679.80;1743689;80;21680;-72
2020/12/29 01:50:11;;;;;;;12.50;7.45;;;;;;;7.15;75.98;97677.69;1744022;80;21177;-72
2020/12/29 01:52:37;;;;;;;14.28;7.55;;;;;;;7.11;76.21;97675.94;1745720;80;21215;-72
2020/12/29 01:55:09;;;;;;;13.60;7.35;;;;;;;7.13;76.04;97676.58;1746114;80;21527;-73
2020/12/29 01:57:35;;;;;;;12.65;8.08;;;;;;;7.08;76.43;97667.14;1747039;80;21218;-73
2020/12/29 02:00:09;;;;;;;13.62;7.60;;;;;;;6.98;76.86;97664.09;1745249;80;21172;-72
2020/12/29 02:02:35;;;;;;;12.53;7.67;;;;;;;7.01;76.90;97661.08;1744162;80;21187;-72
2020/12/29 02:05:01;;;;;;;12.82;7.95;;;;;;;7.01;76.94;97651.89;1744254;80;25347;-71
2020/12/29 02:07:28;;;;;;;11.20;7.03;;;;;;;6.99;76.93;97649.94;1747057;80;21194;-72
2020/12/29 02:09:54;;;;;;;13.13;8.13;;;;;;;7.01;76.97;97642.70;1745009;80;21194;-72
2020/12/29 02:12:25;;;;;;;13.13;7.95;;;;;;;6.96;77.09;97643.77;1744935;80;22219;-72
2020/12/29 02:14:51;;;;;;;11.57;7.40;;;;;;;6.95;77.09;97645.59;1748472;80;21252;-73
2020/12/29 02:17:17;;;;;;;15.23;7.85;;;;;;;6.93;77.23;97637.60;1748653;80;21167;-73
2020/12/29 02:19:43;;;;;;;12.95;7.53;;;;;;;6.92;77.25;97632.07;1744479;80;28405;-74
2020/12/29 02:22:08;;;;;;;13.45;7.50;;;;;;;6.92;77.20;97633.38;1745274;80;26754;-73
2020/12/29 02:24:35;;;;;;;14.13;7.75;;;;;;;6.91;77.20;97631.75;1744383;80;21865;-73
2020/12/29 02:27:04;;;;;;;15.03;7.83;;;;;;;6.88;77.35;97635.56;1746739;80;21216;-72
2020/12/29 02:29:33;;;;;;;11.95;7.60;;;;;;;6.89;77.27;97621.97;1744897;80;21237;-72
2020/12/29 02:32:00;;;;;;;12.25;7.22;;;;;;;6.90;77.28;97619.62;1746404;80;21614;-73
2020/12/29 02:34:26;;;;;;;11.57;7.30;;;;;;;6.89;77.25;97623.28;1750851;80;21491;-73
2020/12/29 02:36:52;;;;;;;11.85;6.92;;;;;;;6.88;77.27;97615.09;1748297;80;21205;-73
2020/12/29 02:39:18;;;;;;;12.53;7.22;;;;;;;6.89;77.24;97608.84;1744982;80;22305;-72
2020/12/29 02:41:44;;;;;;;11.83;7.00;;;;;;;6.89;77.19;97609.64;1745985;80;25742;-73
2020/12/29 02:44:12;;;;;;;11.18;7.10;;;;;;;6.89;77.11;97604.91;1745987;80;28878;-72
2020/12/29 02:46:38;;;;;;;12.00;6.90;;;;;;;6.90;77.17;97607.82;1743185;80;21214;-73
2020/12/29 02:49:03;;;;;;;10.88;6.95;;;;;;;6.89;77.00;97595.22;1744417;80;21194;-73
2020/12/29 02:51:29;;;;;;;11.78;7.08;;;;;;;6.94;77.01;97598.05;1745748;80;27088;-72
2020/12/29 02:53:55;;;;;;;13.25;7.60;;;;;;;6.96;76.74;97592.13;1742599;80;25842;-73
2020/12/29 02:56:21;;;;;;;16.27;7.58;;;;;;;7.01;76.62;97591.55;1746548;80;28889;-72
2020/12/29 02:58:46;;;;;;;11.97;6.62;;;;;;;7.08;76.28;97591.05;1748753;80;26743;-72
2020/12/29 03:01:12;;;;;;;12.18;7.10;;;;;;;7.10;76.20;97588.22;1742898;80;21955;-72
2020/12/29 03:03:38;;;;;;;10.28;6.50;;;;;;;7.12;76.05;97587.03;1750301;80;27078;-72
2020/12/29 03:06:04;;;;;;;10.48;6.83;;;;;;;7.15;75.99;97586.63;1745096;80;25322;-72
2020/12/29 03:08:31;;;;;;;12.05;6.75;;;;;;;7.08;76.09;97577.92;1749391;80;29664;-72
2020/12/29 03:10:57;;;;;;;10.60;6.60;;;;;;;7.05;76.28;97569.64;1743586;80;21212;-73
2020/12/29 03:13:22;;;;;;;10.93;6.47;;;;;;;7.05;76.34;97562.57;1709820;81;21878;-73
2020/12/29 03:15:48;;;;;;;10.40;6.33;;;;;;;7.04;76.55;97553.10;1744164;80;27004;-72
2020/12/29 03:18:14;;;;;;;10.15;6.65;;;;;;;7.09;76.49;97555.13;1746679;80;25296;-72
2020/12/29 03:20:40;;;;;;;12.33;6.95;;;;;;;7.07;76.38;97544.83;1743905;80;28933;-72
2020/12/29 03:23:05;;;;;;;10.85;6.47;;;;;;;7.07;76.37;97559.27;1743938;80;27356;-72
2020/12/29 03:25:31;;;;;;;11.25;6.50;;;;;;;7.08;76.39;97545.12;1745792;80;22447;-72
2020/12/29 03:27:57;;;;;;;9.93;5.92;;;;;;;7.06;76.36;97539.78;1746667;80;26947;-72
2020/12/29 03:30:23;;;;;;;10.50;6.28;;;;;;;7.08;76.36;97552.20;1746994;80;25823;-73
2020/12/29 03:32:48;;;;;;;9.58;6.20;;;;;;;7.04;76.32;97545.23;1747837;80;28840;-73
2020/12/29 03:35:14;;;;;;;11.35;6.10;;;;;;;7.08;76.20;97552.99;1711382;82;21353;-72
2020/12/29 03:37:40;;;;;;;11.85;6.55;;;;;;;7.07;76.15;97538.76;1744278;80;21392;-73
2020/12/29 03:40:05;;;;;;;10.80;6.45;;;;;;;7.04;76.15;97529.48;1748616;80;26988;-73
2020/12/29 03:42:33;;;;;;;10.50;6.42;;;;;;;7.10;75.97;97536.56;1744837;80;25313;-73
2020/12/29 03:44:58;;;;;;;9.98;6.17;;;;;;;7.10;76.08;97533.94;1708994;82;28536;-74
2020/12/29 03:47:24;;;;;;;9.93;5.53;;;;;;;7.13;75.87;97528.30;1749146;80;27408;-73
2020/12/29 03:49:50;;;;;;;9.58;5.90;;;;;;;7.17;75.86;97526.88;1746950;80;21855;-73
2020/12/29 03:52:16;;;;;;;9.40;5.80;;;;;;;7.16;75.82;97520.51;1746802;80;27270;-73
2020/12/29 03:54:41;;;;;;;11.97;6.03;;;;;;;7.17;75.79;97513.75;1743820;80;25320;-73
2020/12/29 03:57:07;;;;;;;9.15;6.15;;;;;;;7.19;75.73;97517.00;1741070;80;28454;-72
2020/12/29 03:59:33;;;;;;;8.98;5.80;;;;;;;7.16;75.86;97514.78;1744345;81;26797;-72
2020/12/29 04:01:58;;;;;;;11.28;6.05;;;;;;;7.22;75.74;97518.41;1737754;81;22479;-72
2020/12/29 04:04:24;;;;;;;9.80;6.00;;;;;;;7.26;75.75;97506.50;1742132;81;27474;-73
2020/12/29 04:06:50;;;;;;;10.03;5.92;;;;;;;7.28;75.71;97507.62;1739802;81;25395;-72
2020/12/29 04:09:16;;;;;;;12.98;6.00;;;;;;;7.38;75.45;97509.36;1741743;81;28724;-72
2020/12/29 04:11:41;;;;;;;10.45;6.20;;;;;;;7.43;75.23;97505.61;1741091;81;26162;-73
2020/12/29 04:14:07;;;;;;;11.22;6.22;;;;;;;7.51;75.03;97490.96;1737885;81;21190;-73
2020/12/29 04:16:33;;;;;;;9.80;5.95;;;;;;;7.50;74.96;97510.38;1740328;81;27451;-72
2020/12/29 04:18:58;;;;;;;11.57;5.95;;;;;;;7.51;74.84;97496.22;1698088;83;25894;-72
2020/12/29 04:21:24;;;;;;;10.50;5.83;;;;;;;7.50;75.03;97506.44;1738334;81;28852;-72
2020/12/29 04:23:51;;;;;;;11.30;6.17;;;;;;;7.48;74.92;97493.98;1701540;83;21065;-71
2020/12/29 04:26:18;;;;;;;9.30;5.97;;;;;;;7.47;75.00;97495.02;1739906;81;21474;-70
2020/12/29 04:28:44;;;;;;;9.40;6.20;;;;;;;7.43;75.19;97493.80;1744673;81;21582;-70
2020/12/29 04:31:12;;;;;;;10.08;5.90;;;;;;;7.50;75.25;97494.62;1740190;81;25814;-72
2020/12/29 04:33:38;;;;;;;11.05;5.92;;;;;;;7.54;75.08;97493.70;1740578;80;21165;-71
2020/12/29 04:36:04;;;;;;;9.08;6.05;;;;;;;7.54;75.10;97490.56;1738555;81;21646;-72
2020/12/29 04:38:30;;;;;;;11.90;6.35;;;;;;;7.46;75.29;97489.45;1737004;81;22567;-71
2020/12/29 04:40:57;;;;;;;11.03;6.20;;;;;;;7.46;75.39;97478.16;1705946;83;27000;-71
2020/12/29 04:43:22;;;;;;;11.68;6.25;;;;;;;7.46;75.42;97465.83;1739307;81;21171;-72
2020/12/29 04:45:48;;;;;;;11.50;7.00;;;;;;;7.48;75.40;97470.87;1740940;81;28293;-71
2020/12/29 04:48:14;;;;;;;10.38;6.22;;;;;;;7.50;75.34;97452.61;1699461;83;21183;-70
2020/12/29 04:50:40;;;;;;;10.72;6.55;;;;;;;7.50;75.35;97463.11;1740794;81;22026;-71
2020/12/29 04:53:07;;;;;;;13.35;6.37;;;;;;;7.48;75.47;97462.48;1737642;81;26992;-71
2020/12/29 04:55:33;;;;;;;10.60;6.62;;;;;;;7.52;75.47;97459.77;1738165;81;21137;-71
2020/12/29 04:57:59;;;;;;;10.80;6.53;;;;;;;7.55;75.49;97456.73;1758742;80;28444;-71
2020/12/29 05:00:25;;;;;;;10.72;6.37;;;;;;;7.61;75.33;97461.66;1754445;80;21184;-72
2020/12/29 05:02:52;;;;;;;9.95;6.70;;;;;;;7.62;75.40;97457.23;1753757;80;21713;-72
2020/12/29 05:05:19;;;;;;;11.50;6.37;;;;;;;7.65;75.37;97455.52;1761314;80;21192;-71
2020/12/29 05:07:45;;;;;;;10.77;6.37;;;;;;;7.67;75.26;97458.73;1751925;80;21196;-72
2020/12/29 05:10:11;;;;;;;11.08;6.72;;;;;;;7.70;75.31;97454.39;1753469;80;21694;-72
2020/12/29 05:12:50;;;;;;;11.83;6.22;;;;;;;7.70;75.46;97459.12;1754365;80;21617;-72
2020/12/29 05:15:17;;;;;;;11.93;6.75;;;;;;;7.76;75.45;97461.45;1755044;80;21221;-72
2020/12/29 05:17:43;;;;;;;9.15;6.33;;;;;;;7.77;75.48;97447.31;1760339;80;21170;-71
2020/12/29 05:20:09;;;;;;;9.95;6.30;;;;;;;7.76;75.57;97445.69;1756516;80;25238;-72
2020/12/29 05:22:38;;;;;;;10.13;6.45;;;;;;;7.77;75.63;97436.80;1755071;80;21196;-72
2020/12/29 05:25:06;;;;;;;8.83;6.33;;;;;;;7.84;75.26;97437.58;1758442;80;21223;-71
2020/12/29 05:27:37;;;;;;;9.48;6.17;;;;;;;7.90;75.05;97428.08;1753039;80;21247;-71
2020/12/29 05:30:06;;;;;;;11.43;6.33;;;;;;;7.97;74.99;97428.05;1755042;80;21218;-71
2020/12/29 05:32:39;;;;;;;11.55;6.60;;;;;;;8.02;74.93;97410.66;1757445;80;21206;-71
2020/12/29 05:35:12;;;;;;;11.03;6.55;;;;;;;8.06;74.59;97418.93;1755412;80;21136;-70
2020/12/29 05:37:39;;;;;;;11.15;6.42;;;;;;;8.01;74.44;97414.81;1752645;80;21179;-70
2020/12/29 05:40:27;;;;;;;12.40;6.60;;;;;;;8.03;74.56;97412.77;1756315;80;21252;-71
2020/12/29 05:42:57;;;;;;;13.93;6.28;;;;;;;8.01;74.25;97403.78;1754524;80;21601;-71
2020/12/29 05:45:32;;;;;;;9.23;5.97;;;;;;;7.98;74.41;97394.20;1756206;80;21280;-71
2020/12/29 05:47:59;;;;;;;13.32;6.78;;;;;;;7.95;74.50;97401.19;1758856;80;21556;-70
2020/12/29 05:50:26;;;;;;;12.05;6.72;;;;;;;7.93;74.58;97401.39;1754727;80;21505;-71
2020/12/29 05:53:05;;;;;;;11.57;6.93;;;;;;;7.95;74.59;97391.47;1752629;80;21191;-70
2020/12/29 05:55:32;;;;;;;11.35;6.75;;;;;;;7.94;74.62;97399.56;1759198;80;21192;-71
2020/12/29 05:58:08;;;;;;;11.73;6.63;;;;;;;7.91;74.73;97391.09;1755891;80;21128;-71
2020/12/29 06:00:36;;;;;;;12.80;6.45;;;;;;;7.88;74.87;97394.13;1751979;80;21183;-70
2020/12/29 06:03:03;;;;;;;;;;;;;;;7.96;74.80;97394.92;1754503;80;21209;-69
2020/12/29 06:05:31;;;;;;;10.85;6.60;;;;;;;7.98;74.79;97387.63;1760899;80;21926;-70
2020/12/29 06:08:03;;;;;;;11.35;7.00;;;;;;;7.97;75.04;97399.14;1760060;80;21235;-70
2020/12/29 06:10:30;;;;;;;11.53;6.60;;;;;;;7.96;75.16;97393.09;1755321;80;21207;-70
2020/12/29 06:12:58;;;;;;;11.08;6.95;;;;;;;8.00;75.17;97385.59;1753887;80;21644;-70
2020/12/29 06:15:34;;;;;;;14.63;7.12;;;;;;;7.98;75.62;97387.63;1752212;80;21216;-69
2020/12/29 06:18:04;;;;;;;13.05;7.72;;;;;;;7.93;75.78;97376.42;1757458;80;22117;-70
2020/12/29 06:20:38;;;;;;;10.82;6.85;;;;;;;7.95;76.02;97373.08;1753567;80;21145;-69
2020/12/29 06:23:05;;;;;;;12.07;7.50;;;;;;;8.00;76.23;97377.70;1752329;80;21122;-70
2020/12/29 06:25:35;;;;;;;;;;;;;;;7.94;76.81;97379.85;1763686;80;21133;-71
2020/12/29 06:28:02;;;;;;;13.88;7.33;;;;;;;7.94;77.32;97373.28;1754016;80;20598;-71
2020/12/29 06:30:28;;;;;;;11.68;7.35;;;;;;;7.89;77.78;97378.67;1758116;80;21220;-71
2020/12/29 06:32:55;;;;;;;12.13;7.28;;;;;;;7.90;77.95;97368.45;1758682;80;27064;-71
2020/12/29 06:35:20;;;;;;;16.05;7.15;;;;;;;7.90;78.31;97371.07;1754441;80;21172;-71
2020/12/29 06:38:12;;;;;;;11.10;6.75;;;;;;;7.88;78.44;97365.23;1752423;80;28425;-72
2020/12/29 06:40:37;;;;;;;13.65;7.10;;;;;;;7.94;78.58;97366.72;1756899;80;21610;-72
2020/12/29 06:43:07;;;;;;;12.03;6.92;;;;;;;7.90;78.50;97367.12;1747413;80;22529;-71
2020/12/29 06:45:34;;;;;;;11.00;7.03;;;;;;;7.91;78.59;97362.19;1752323;80;21677;-71
2020/12/29 06:48:01;;;;;;;11.88;7.37;;;;;;;8.01;78.64;97359.62;1756712;80;21202;-70
2020/12/29 06:50:29;;;;;;;11.03;6.47;;;;;;;8.13;78.40;97357.95;1759778;80;21188;-71
2020/12/29 06:53:02;;;;;;;11.18;6.78;;;;;;;8.15;77.99;97365.11;1756883;80;21565;-70
2020/12/29 06:55:30;;;;;;;11.97;6.67;;;;;;;8.20;77.84;97357.42;1757994;80;21196;-70
2020/12/29 06:57:55;;;;;;;;;;;;;;;8.15;77.59;97351.97;1761657;80;21162;-69
2020/12/29 07:00:23;;;;;;;12.47;6.90;;;;;;;8.14;77.55;97346.92;1743742;80;20555;-70
2020/12/29 07:02:53;;;;;;;14.38;6.92;;;;;;;8.11;77.57;97348.16;1745671;80;21182;-71
2020/12/29 07:05:27;;;;;;;12.37;7.70;;;;;;;8.08;77.55;97340.70;1747332;80;21201;-72
2020/12/29 07:07:58;;;;;;;13.18;7.60;;;;;;;8.02;77.77;97333.66;1745883;80;21725;-72
2020/12/29 07:10:47;;;;;;;12.15;7.53;;;;;;;8.06;77.95;97335.66;1747505;80;21200;-72
2020/12/29 07:13:14;;;;;;;11.90;7.15;;;;;;;8.07;78.00;97339.08;1743690;80;21165;-71
2020/12/29 07:15:56;;;;;;;13.48;7.30;;;;;;;8.04;78.26;97331.61;1743132;80;21146;-71
2020/12/29 07:18:28;;;;;;;11.57;6.95;;;;;;;8.04;78.44;97331.61;1746421;80;21204;-69
2020/12/29 07:20:58;;;;;;;13.68;7.35;;;;;;;7.94;78.63;97328.61;1748126;80;21204;-70
2020/12/29 07:23:27;;;;;;;13.70;7.97;;;;;;;7.90;78.72;97329.03;1746389;80;21169;-70
2020/12/29 07:25:56;;;;;;;12.53;7.45;;;;;;;7.89;78.73;97331.86;1710831;80;21228;-70
2020/12/29 07:28:26;;;;;;;14.20;7.65;;;;;;;7.87;79.09;97331.28;1745463;80;21222;-70
2020/12/29 07:30:52;;;;;;;11.83;7.15;;;;;;;7.87;79.33;97324.19;1749257;80;21258;-71
2020/12/29 07:33:22;;;;;;;14.68;7.87;;;;;;;7.90;79.24;97330.34;1749004;80;21255;-71
2020/12/29 07:35:48;;;;;;;13.40;7.70;;;;;;;7.85;80.01;97320.98;1745195;80;21617;-71
2020/12/29 07:38:22;;;;;;;13.35;7.65;;;;;;;7.81;80.69;97321.09;1746504;80;21216;-72
2020/12/29 07:40:47;;;;;;;13.35;7.62;;;;;;;7.79;81.18;97320.50;1745685;80;21297;-73
2020/12/29 07:43:13;;;;;;;14.80;8.05;;;;;;;7.82;81.18;97325.33;1745878;80;21038;-73
2020/12/29 07:45:39;;;;;;;13.98;8.15;;;;;;;7.80;81.76;97322.12;1745058;80;21295;-72
2020/12/29 07:48:05;;;;;;;12.53;7.78;;;;;;;7.76;82.62;97326.16;1747366;80;27712;-72
2020/12/29 07:50:32;;;;;;;11.40;7.85;;;;;;;7.79;82.66;97331.52;1747487;80;21178;-71
2020/12/29 07:53:11;;;;;;;11.68;7.85;;;;;;;7.78;83.06;97326.75;1745604;80;21245;-70
2020/12/29 07:55:45;;;;;;;13.48;7.95;;;;;;;7.71;83.56;97322.84;1746926;80;21626;-71
2020/12/29 07:58:11;;;;;;;12.85;7.00;;;;;;;7.74;83.74;97325.58;1745916;80;22198;-70
2020/12/29 08:00:38;;;;;;;11.97;7.25;;;;;;;7.67;84.42;97327.41;1742338;80;26980;-70
2020/12/29 08:03:04;;;;;;;12.98;7.65;;;;;;;7.71;84.52;97329.93;1745744;80;21205;-70
2020/12/29 08:05:32;;;;;;;13.70;7.35;;;;;;;7.73;84.73;97330.52;1745628;80;21638;-71
2020/12/29 08:08:01;;;;;;;12.13;7.12;;;;;;;7.70;85.19;97333.56;1745846;80;21224;-69
2020/12/29 08:10:36;;;;;;;12.20;7.60;;;;;;;7.77;84.96;97333.05;1745707;80;21194;-70
2020/12/29 08:13:04;;;;;;;10.93;7.17;;;;;;;7.80;85.14;97333.94;1747517;80;21166;-69
2020/12/29 08:15:34;;;;;;;14.13;7.50;;;;;;;7.90;85.43;97329.03;1745031;80;21592;-70
2020/12/29 08:18:10;;;;;;;13.38;7.15;;;;;;;7.88;85.27;97328.44;1747616;80;21536;-71
2020/12/29 08:20:55;;;;;;;15.93;7.83;;;;;;;7.95;85.17;97334.18;1744881;80;21149;-72
2020/12/29 08:23:23;;;;;;;11.83;7.30;;;;;;;7.87;85.58;97329.45;1743585;80;21255;-70
2020/12/29 08:26:00;;;;;;;13.13;7.50;;;;;;;7.82;85.64;97329.80;1746942;80;21117;-69
2020/12/29 08:28:37;;;;;;;12.17;7.40;;;;;;;7.82;86.11;97324.02;1743364;80;21173;-70
2020/12/29 08:31:03;;;;;;;13.10;7.25;;;;;;;7.84;86.22;97327.23;1744830;80;21326;-69
2020/12/29 08:33:30;;;;;;;10.98;7.20;;;;;;;7.80;86.50;97331.31;1750371;80;21125;-70
2020/12/29 08:36:04;;;;;;;11.22;7.22;;;;;;;7.81;86.71;97338.16;1745253;80;22364;-69
2020/12/29 08:38:41;;;;;;;10.72;6.60;;;;;;;7.86;86.59;97330.48;1742846;80;21227;-69
2020/12/29 08:41:20;;;;;;;10.65;6.72;;;;;;;7.86;86.85;97338.85;1744413;80;26666;-70
2020/12/29 08:43:50;;;;;;;8.40;6.05;;;;;;;7.83;87.04;97344.03;1745332;80;21185;-70
2020/12/29 08:46:18;;;;;;;10.55;6.87;;;;;;;7.81;87.61;97351.81;1745010;80;21659;-70
2020/12/29 08:49:05;;;;;;;11.18;7.00;;;;;;;7.83;87.87;97346.66;1748323;80;21186;-70
2020/12/29 08:51:33;;;;;;;9.50;6.22;;;;;;;7.83;88.12;97346.66;1696457;80;21213;-69
2020/12/29 08:54:18;;;;;;;10.72;6.40;;;;;;;7.80;88.63;97351.02;1745189;80;21713;-70
2020/12/29 08:56:44;;;;;;;11.45;6.50;;;;;;;7.82;88.69;97353.44;1744311;80;21201;-69
2020/12/29 08:59:22;;;;;;;9.63;6.47;;;;;;;7.84;88.56;97352.71;1749108;80;27598;-71
2020/12/29 09:01:57;;;;;;;11.03;6.25;;;;;;;7.87;88.91;97347.84;1744635;80;21225;-72
2020/12/29 09:04:42;;;;;;;11.20;6.50;;;;;;;7.86;89.48;97348.87;1746630;80;22496;-71
2020/12/29 09:07:12;;;;;;;10.75;5.72;;;;;;;7.91;89.26;97346.94;1747473;80;21225;-71
2020/12/29 09:09:56;;;;;;;7.78;5.03;;;;;;;7.89;89.29;97343.20;1746056;80;21179;-70
2020/12/29 09:12:24;;;;;;;7.95;5.15;;;;;;;7.87;89.50;97341.27;1745513;80;21221;-70
2020/12/29 09:15:04;;;;;;;10.13;5.20;;;;;;;7.91;89.86;97349.05;1745907;80;21857;-70
2020/12/29 09:17:32;;;;;;;9.40;5.45;;;;;;;7.89;89.84;97346.31;1743694;80;21290;-71
2020/12/29 09:20:13;;;;;;;8.40;4.92;;;;;;;7.86;89.59;97335.73;1748561;80;21572;-70
2020/12/29 09:23:03;;;;;;;7.40;4.65;;;;;;;7.96;89.51;97337.11;1746414;80;21212;-70
2020/12/29 09:25:35;;;;;;;6.45;4.50;;;;;;;7.97;89.85;97333.45;1744670;80;21216;-70
2020/12/29 09:28:09;;;;;;;9.65;5.28;;;;;;;7.93;90.15;97333.59;1743151;80;21658;-71
2020/12/29 09:30:34;;;;;;;7.78;4.60;;;;;;;7.96;90.43;97339.74;1744631;80;21236;-70
2020/12/29 09:33:00;;;;;;;6.85;4.50;;;;;;;8.05;90.33;97333.23;1747739;80;25392;-71
2020/12/29 09:35:26;;;;;;;6.65;3.90;;;;;;;8.08;89.85;97332.81;1742597;80;29835;-72
2020/12/29 09:37:55;;;;;;;8.73;4.35;;;;;;;8.14;89.89;97335.09;1743749;80;21205;-75
2020/12/29 09:40:21;;;;;;;7.85;3.65;;;;;;;8.15;89.47;97332.77;1746567;80;22161;-71
2020/12/29 09:42:48;;;;;;;6.03;4.00;;;;;;;8.09;89.51;97340.98;1746200;80;21244;-82
2020/12/29 09:45:18;;;;;;;6.03;3.45;;;;;;;8.11;89.78;97333.71;1744680;80;21149;-73
2020/12/29 09:47:44;;;;;;;6.25;3.90;;;;;;;8.08;89.67;97336.76;1745380;80;21268;-69
2020/12/29 09:50:09;;;;;;;7.28;3.65;;;;;;;8.07;89.75;97346.45;1743892;80;21049;-70
2020/12/29 09:52:35;;;;;;;5.67;3.58;;;;;;;8.07;90.05;97345.65;1746171;80;21202;-71
2020/12/29 09:55:03;;;;;;;5.60;3.50;;;;;;;8.06;90.40;97347.97;1744901;80;27500;-70
2020/12/29 09:57:29;;;;;;;6.05;3.75;;;;;;;8.04;90.71;97343.44;1744101;80;21228;-70
2020/12/29 09:59:54;;;;;;;6.62;3.85;;;;;;;8.03;90.68;97350.52;1748429;80;28407;-69
2020/12/29 10:02:21;;;;;;;5.90;3.30;;;;;;;8.00;91.09;97356.20;1742956;80;21063;-69
2020/12/29 10:04:47;;;;;;;5.10;3.50;;;;;;;7.82;92.53;97367.88;1748756;81;21633;-68
2020/12/29 10:07:13;;;;;;;7.37;3.42;;;;;;;7.84;92.26;97364.02;1748103;81;27586;-69
2020/12/29 10:09:38;;;;;;;8.25;3.83;;;;;;;7.78;93.20;97371.41;1744820;80;25815;-69
2020/12/29 10:12:04;;;;;;;8.25;3.50;;;;;;;7.57;93.53;97387.42;1739558;81;20966;-69
2020/12/29 10:14:30;;;;;;;5.65;3.00;;;;;;;7.49;93.79;97387.95;1744648;80;21008;-69
2020/12/29 10:16:56;;;;;;;5.87;3.30;;;;;;;7.47;93.60;97392.62;1741409;80;21204;-70
2020/12/29 10:19:21;;;;;;;6.12;3.40;;;;;;;7.53;93.57;97402.27;1741189;80;27111;-69
2020/12/29 10:21:54;;;;;;;6.75;3.37;;;;;;;7.46;94.03;97421.19;1748760;80;26061;-70
2020/12/29 10:24:19;;;;;;;5.50;2.92;;;;;;;7.33;93.85;97427.27;1712664;81;21785;-68
2020/12/29 10:26:51;;;;;;;4.90;2.85;;;;;;;7.31;93.46;97413.52;1739669;81;21615;-70
2020/12/29 10:29:18;;;;;;;5.22;3.02;;;;;;;7.17;93.95;97424.52;1744199;80;21922;-69
2020/12/29 10:31:44;;;;;;;4.58;2.95;;;;;;;7.22;94.10;97429.67;1745758;80;21213;-70
2020/12/29 10:34:13;;;;;;;5.40;3.10;;;;;;;7.21;93.44;97440.69;1744587;80;25353;-69
2020/12/29 10:36:39;;;;;;;5.08;2.85;;;;;;;7.07;94.03;97458.24;1741142;81;21194;-71
2020/12/29 10:39:06;;;;;;;4.40;2.60;;;;;;;6.64;93.12;97469.04;1749350;80;27182;-71
2020/12/29 10:41:33;;;;;;;3.90;2.25;;;;;;;6.49;92.59;97471.00;1746382;80;21939;-70
2020/12/29 10:43:59;;;;;;;4.70;2.60;;;;;;;6.32;92.81;97481.02;1743041;80;21228;-70
2020/12/29 10:46:24;;;;;;;4.87;2.20;;;;;;;6.05;92.07;97489.55;1746980;81;25307;-70
2020/12/29 10:48:50;;;;;;;3.45;2.30;;;;;;;5.97;93.41;97496.25;1746557;80;28490;-71
2020/12/29 10:51:20;;;;;;;4.37;2.20;;;;;;;5.75;93.49;97531.63;1746126;81;26805;-75
2020/12/29 10:53:46;;;;;;;4.97;2.50;;;;;;;5.63;93.87;97525.29;1744098;80;21724;-69
2020/12/29 10:56:12;;;;;;;3.60;2.30;;;;;;;5.56;94.98;97519.18;1747434;81;28037;-72
2020/12/29 10:58:39;;;;;;;4.12;2.55;;;;;;;5.47;95.51;97536.84;1745430;80;25428;-70
2020/12/29 11:01:05;;;;;;;3.75;2.30;;;;;;;5.49;95.58;97549.74;1745530;80;21158;-70
2020/12/29 11:03:31;;;;;;;3.55;2.30;;;;;;;5.36;94.92;97611.43;1734438;80;21733;-71
2020/12/29 11:05:57;;;;;;;6.60;2.40;;;;;;;5.20;95.88;97582.87;1745697;80;21787;-71
2020/12/29 11:08:27;;;;;;;3.83;2.42;;;;;;;4.95;96.05;97594.16;1744675;80;26977;-72
2020/12/29 11:10:53;;;;;;;4.17;2.60;;;;;;;4.97;96.89;97553.77;1748138;80;21169;-71
2020/12/29 11:13:19;;;;;;;4.28;2.70;;;;;;;4.87;96.83;97583.31;1742275;80;21568;-77
2020/12/29 11:15:46;;;;;;;5.15;2.90;;;;;;;4.81;97.79;97604.95;1742392;80;21576;-70
2020/12/29 11:18:12;;;;;;;4.70;3.17;;;;;;;4.76;98.36;97629.03;1745856;80;21764;-70
2020/12/29 11:20:37;;;;;;;5.90;3.67;;;;;;;4.72;97.95;97659.13;1744216;80;21229;-70
2020/12/29 11:23:03;;;;;;;8.13;4.22;;;;;;;4.62;96.84;97646.34;1745782;80;25444;-70
2020/12/29 11:25:39;;;;;;;7.10;4.45;;;;;;;4.68;97.50;97650.84;1709984;82;28401;-69
2020/12/29 11:28:04;;;;;;;6.97;4.55;;;;;;;4.70;98.66;97688.58;1751902;80;22053;-70
2020/12/29 11:30:30;;;;;;;9.03;5.00;;;;;;;4.79;99.73;97678.85;1751397;80;22136;-67
2020/12/29 11:32:56;;;;;;;8.15;4.90;;;;;;;4.85;99.36;97687.28;1709274;81;27062;-68
2020/12/29 11:35:21;;;;;;;7.70;5.33;;;;;;;4.88;99.43;97694.77;1744553;80;25741;-70
2020/12/29 11:37:47;;;;;;;6.65;4.62;;;;;;;4.91;100.00;97703.56;1742975;80;28351;-74
2020/12/29 11:40:13;;;;;;;7.58;5.12;;;;;;;4.91;100.00;97708.79;1746506;80;26706;-70